createdAt,value
2023-01-20T00:01:39.934Z,99816.94
2023-01-20T00:04:07.813Z,99822.09
2023-01-20T00:06:36.078Z,99821.68
2023-01-20T00:09:05.325Z,99826.66
2023-01-20T00:11:33.544Z,99830.98
2023-01-20T00:14:02.618Z,99833.41
2023-01-20T00:16:32.209Z,99832.35
2023-01-20T00:19:00.608Z,99835.69
2023-01-20T00:21:28.431Z,99839.30
2023-01-20T00:23:56.507Z,99838.91
2023-01-20T00:26:25.168Z,99837.88
2023-01-20T00:28:55.052Z,99841.98
2023-01-20T00:31:25.840Z,99845.16
2023-01-20T00:33:56.111Z,99848.81
2023-01-20T00:36:25.729Z,99851.69
2023-01-20T00:38:54.007Z,99853.85
2023-01-20T00:41:21.860Z,99860.52
2023-01-20T00:43:50.070Z,99863.73
2023-01-20T00:46:18.031Z,99864.72
2023-01-20T00:48:46.580Z,99865.41
2023-01-20T00:51:14.570Z,99867.40
2023-01-20T00:53:42.414Z,99869.88
2023-01-20T00:56:10.279Z,99874.56
2023-01-20T00:58:38.059Z,99877.94
2023-01-20T07:00:16.642Z,100247.29
2023-01-20T07:02:44.554Z,100257.05
2023-01-20T07:05:12.872Z,100266.73
2023-01-20T07:07:44.485Z,100269.87
2023-01-20T07:10:12.934Z,100272.74
2023-01-20T07:12:40.694Z,100277.82
2023-01-20T07:15:08.921Z,100284.35
2023-01-20T07:17:36.707Z,100290.23
2023-01-20T07:20:05.164Z,100290.56
2023-01-20T07:22:32.970Z,100290.90
2023-01-20T07:25:00.761Z,100291.11
2023-01-20T07:27:28.533Z,100291.85
2023-01-20T07:29:56.362Z,100291.73
2023-01-20T07:32:24.183Z,100293.31
2023-01-20T07:34:51.990Z,100292.84
2023-01-20T07:37:19.762Z,100297.73
2023-01-20T07:39:47.628Z,100300.40
2023-01-20T07:42:15.384Z,100300.60
2023-01-20T07:44:43.191Z,100302.18
2023-01-20T07:47:10.925Z,100302.46
2023-01-20T07:49:38.773Z,100302.02
2023-01-20T07:52:06.641Z,100301.23
2023-01-20T07:54:34.954Z,100301.42
2023-01-20T07:57:02.782Z,100301.46
2023-01-20T07:59:30.655Z,100304.14
2023-01-20T08:01:58.478Z,100308.48
2023-01-20T08:04:26.454Z,100310.17
2023-01-20T08:06:54.448Z,100312.34
2023-01-20T08:09:22.130Z,100313.67
2023-01-20T08:11:49.983Z,100317.70
2023-01-20T08:14:17.737Z,100317.12
2023-01-20T08:16:45.753Z,100316.91
2023-01-20T08:19:13.678Z,100314.56
2023-01-20T08:21:41.473Z,100317.17
2023-01-20T08:24:10.767Z,100316.05
2023-01-20T08:26:38.528Z,100310.29
2023-01-20T08:29:10.225Z,100313.67
2023-01-20T08:31:38.588Z,100315.90
2023-01-20T08:34:06.599Z,100317.58
2023-01-20T08:36:37.234Z,100318.63
2023-01-20T08:39:08.170Z,100320.21
2023-01-20T08:41:38.496Z,100327.88
2023-01-20T08:44:08.163Z,100330.70
2023-01-20T08:46:39.857Z,100333.16
2023-01-20T08:49:13.049Z,100332.93
2023-01-20T08:51:41.102Z,100334.81
2023-01-20T08:54:09.602Z,100340.42
2023-01-20T08:56:37.464Z,100339.28
2023-01-20T08:59:05.328Z,100336.40
2023-01-20T09:01:36.324Z,100337.80
2023-01-20T09:04:07.082Z,100336.69
2023-01-20T09:06:44.807Z,100332.30
2023-01-20T09:09:14.303Z,100332.08
2023-01-20T09:11:44.994Z,100336.02
2023-01-20T09:14:12.985Z,100340.55
2023-01-20T09:16:40.764Z,100342.73
2023-01-20T09:19:08.608Z,100347.73
2023-01-20T09:21:36.505Z,100348.95
2023-01-20T09:24:05.490Z,100351.98
2023-01-20T09:26:38.753Z,100354.42
2023-01-20T09:29:10.845Z,100359.77
2023-01-20T09:31:44.705Z,100364.59
2023-01-20T09:34:21.621Z,100364.15
2023-01-20T09:37:19.931Z,100368.97
2023-01-20T09:40:07.063Z,100370.05
2023-01-20T09:43:14.835Z,100375.83
2023-01-20T09:45:56.765Z,100379.44
2023-01-20T09:48:49.551Z,100380.52
2023-01-20T09:51:51.432Z,100383.66
2023-01-20T09:54:25.928Z,100383.38
2023-01-20T09:56:58.120Z,100383.15
2023-01-20T09:59:41.246Z,100380.19
2023-01-20T10:02:18.878Z,100380.85
2023-01-20T10:04:52.725Z,100380.13
2023-01-20T10:07:51.436Z,100384.20
2023-01-20T10:10:35.302Z,100387.13
2023-01-20T10:13:08.594Z,100381.80
2023-01-20T10:15:37.934Z,100380.80
2023-01-20T10:18:06.075Z,100381.00
2023-01-20T10:20:37.504Z,100379.92
2023-01-20T10:23:16.111Z,100381.38
2023-01-20T10:26:28.881Z,100378.73
2023-01-20T10:29:04.293Z,100381.59
2023-01-20T10:31:38.245Z,100382.55
2023-01-20T10:34:17.325Z,100383.85
2023-01-20T10:36:51.008Z,100384.30
2023-01-20T10:39:35.576Z,100387.38
2023-01-20T10:42:10.111Z,100386.74
2023-01-20T10:44:38.052Z,100391.55
2023-01-20T10:47:37.150Z,100398.02
2023-01-20T10:50:33.337Z,100399.73
2023-01-20T10:53:19.268Z,100403.77
2023-01-20T10:56:13.059Z,100399.53
2023-01-20T10:58:45.315Z,100403.55
2023-01-20T11:01:19.221Z,100404.33
2023-01-20T11:03:48.992Z,100403.88
2023-01-20T11:06:22.365Z,100402.84
2023-01-20T11:08:50.185Z,100404.40
2023-01-20T11:11:21.852Z,100406.14
2023-01-20T11:13:54.050Z,100408.95
2023-01-20T11:16:29.030Z,100405.96
2023-01-20T11:19:06.171Z,100401.11
2023-01-20T11:21:36.994Z,100401.59
2023-01-20T11:24:31.884Z,100401.81
2023-01-20T11:27:11.359Z,100405.17
2023-01-20T11:29:45.095Z,100405.83
2023-01-20T11:32:45.422Z,100408.25
2023-01-20T11:35:24.558Z,100410.70
2023-01-20T11:37:52.775Z,100414.70
2023-01-20T11:40:26.699Z,100415.83
2023-01-20T11:42:55.419Z,100417.70
2023-01-20T11:45:27.433Z,100422.11
2023-01-20T11:48:15.976Z,100430.02
2023-01-20T11:50:50.275Z,100434.65
2023-01-20T11:53:26.203Z,100435.77
2023-01-20T11:56:18.385Z,100440.97
2023-01-20T11:58:57.744Z,100443.69
2023-01-20T12:01:30.804Z,100441.05
2023-01-20T12:04:17.844Z,100444.69
2023-01-20T12:07:07.348Z,100441.29
2023-01-20T12:09:44.994Z,100441.98
2023-01-20T12:12:36.153Z,100441.61
2023-01-20T12:15:11.218Z,100441.48
2023-01-20T12:17:45.853Z,100436.10
2023-01-20T12:20:21.046Z,100431.29
2023-01-20T12:23:01.828Z,100434.33
2023-01-20T12:25:43.517Z,100437.34
2023-01-20T12:28:25.303Z,100443.53
2023-01-20T12:30:59.426Z,100446.05
2023-01-20T12:33:33.120Z,100450.30
2023-01-20T12:36:06.101Z,100452.86
2023-01-20T12:38:53.635Z,100454.72
2023-01-20T12:41:57.027Z,100450.67
2023-01-20T12:44:32.165Z,100451.07
2023-01-20T12:47:33.775Z,100443.92
2023-01-20T12:50:14.104Z,100442.48
2023-01-20T12:52:55.564Z,100446.54
2023-01-20T12:55:37.868Z,100452.55
2023-01-20T12:58:40.060Z,100455.83
2023-01-20T13:01:29.669Z,100453.75
2023-01-20T13:04:35.527Z,100455.54
2023-01-20T13:07:21.560Z,100453.41
2023-01-20T13:09:55.157Z,100455.22
2023-01-20T13:12:41.769Z,100454.02
2023-01-20T13:15:34.815Z,100454.35
2023-01-20T13:18:26.026Z,100459.92
2023-01-20T13:20:55.631Z,100464.42
2023-01-20T13:23:29.739Z,100467.03
2023-01-20T13:26:00.249Z,100469.29
2023-01-20T13:28:30.413Z,100468.75
2023-01-20T13:31:00.744Z,100463.85
2023-01-20T13:33:28.695Z,100468.21
2023-01-20T13:35:57.711Z,100469.71
2023-01-20T13:38:33.129Z,100464.40
2023-01-20T13:41:06.482Z,100465.02
2023-01-20T13:43:53.427Z,100463.07
2023-01-20T13:46:21.439Z,100468.41
2023-01-20T13:49:11.381Z,100468.52
2023-01-20T13:51:39.143Z,100465.84
2023-01-20T13:54:34.360Z,100461.44
2023-01-20T13:57:20.597Z,100458.92
2023-01-20T13:59:48.353Z,100462.23
2023-01-20T14:02:18.043Z,100460.44
2023-01-20T14:04:46.344Z,100462.52
2023-01-20T14:07:28.800Z,100463.64
2023-01-20T14:09:59.555Z,100464.42
2023-01-20T14:12:27.910Z,100470.20
2023-01-20T14:14:55.977Z,100479.55
2023-01-20T14:17:24.972Z,100480.98
2023-01-20T14:19:55.815Z,100479.47
2023-01-20T14:22:30.168Z,100483.55
2023-01-20T14:25:00.807Z,100490.33
2023-01-20T14:27:32.406Z,100496.73
2023-01-20T14:30:14.681Z,100499.41
2023-01-20T14:32:42.686Z,100499.00
2023-01-20T14:35:28.168Z,100501.46
2023-01-20T14:37:56.227Z,100495.55
2023-01-20T14:40:35.997Z,100495.50
2023-01-20T14:43:15.526Z,100497.15
2023-01-20T14:45:46.863Z,100496.91
2023-01-20T14:48:28.259Z,100509.54
2023-01-20T14:51:02.829Z,100523.24
2023-01-20T14:53:30.846Z,100529.48
2023-01-20T14:56:17.822Z,100538.72
2023-01-20T14:58:54.006Z,100542.70
2023-01-20T15:01:25.442Z,100549.05
2023-01-20T15:03:59.074Z,100554.27
2023-01-20T15:06:27.135Z,100553.71
2023-01-20T15:09:06.120Z,100557.75
2023-01-20T15:11:35.758Z,100553.67
2023-01-20T15:14:06.088Z,100552.43
2023-01-20T15:16:36.731Z,100552.91
2023-01-20T15:19:13.857Z,100550.52
2023-01-20T15:21:46.697Z,100551.45
2023-01-20T15:24:22.330Z,100555.98
2023-01-20T15:26:52.561Z,100566.71
2023-01-20T15:29:29.328Z,100577.27
2023-01-20T15:32:09.387Z,100575.06
2023-01-20T15:34:37.382Z,100582.80
2023-01-20T15:37:17.260Z,100583.27
2023-01-20T15:39:45.177Z,100588.63
2023-01-20T15:42:15.399Z,100587.46
2023-01-20T15:44:43.150Z,100589.41
2023-01-20T15:47:21.247Z,100589.19
2023-01-20T15:49:49.521Z,100592.35
2023-01-20T15:52:18.308Z,100591.54
2023-01-20T15:54:46.744Z,100593.06
2023-01-20T15:57:17.625Z,100589.24
2023-01-20T15:59:46.543Z,100588.89
2023-01-20T16:02:20.575Z,100584.79
2023-01-20T16:04:49.998Z,100586.09
2023-01-20T16:07:21.355Z,100587.19
2023-01-20T16:09:49.615Z,100586.16
2023-01-20T16:12:19.478Z,100585.50
2023-01-20T16:14:48.061Z,100590.07
2023-01-20T16:17:19.671Z,100587.43
2023-01-20T16:19:49.422Z,100590.86
2023-01-20T16:22:18.213Z,100591.46
2023-01-20T16:24:49.233Z,100598.71
2023-01-20T16:27:20.835Z,100595.33
2023-01-20T16:29:49.895Z,100598.21
2023-01-20T16:32:22.113Z,100596.30
2023-01-20T16:34:50.849Z,100601.45
2023-01-20T16:37:19.227Z,100601.35
2023-01-20T16:39:47.499Z,100601.09
2023-01-20T16:42:17.275Z,100605.04
2023-01-20T16:44:45.603Z,100608.54
2023-01-20T16:47:14.080Z,100613.03
2023-01-20T16:49:42.643Z,100610.16
2023-01-20T16:52:12.379Z,100607.77
2023-01-20T16:54:41.226Z,100606.69
2023-01-20T16:57:10.657Z,100607.30
2023-01-20T16:59:38.941Z,100610.52
2023-01-20T17:02:07.449Z,100614.41
2023-01-20T17:04:36.121Z,100617.73
2023-01-20T17:07:04.266Z,100619.23
2023-01-20T17:09:32.434Z,100622.83
2023-01-20T17:12:00.679Z,100622.96
2023-01-20T17:14:28.894Z,100622.77
2023-01-20T17:16:58.649Z,100627.63
2023-01-20T17:19:27.069Z,100631.70
2023-01-20T17:21:57.053Z,100639.14
2023-01-20T17:24:26.855Z,100641.21
2023-01-20T17:26:55.299Z,100641.42
2023-01-20T17:29:23.539Z,100646.86
2023-01-20T17:31:52.331Z,100653.89
2023-01-20T17:34:20.735Z,100651.18
2023-01-20T17:36:49.137Z,100654.17
2023-01-20T17:39:17.464Z,100653.64
2023-01-20T17:41:46.157Z,100653.43
2023-01-20T17:44:14.944Z,100655.85
2023-01-20T17:46:43.422Z,100660.05
2023-01-20T17:49:11.848Z,100661.23
2023-01-20T17:51:41.116Z,100661.89
2023-01-20T17:54:09.867Z,100666.08
2023-01-20T17:56:38.815Z,100675.15
2023-01-20T17:59:07.249Z,100680.20
2023-01-20T18:01:35.671Z,100680.26
2023-01-20T18:04:06.732Z,100684.02
2023-01-20T18:06:35.733Z,100684.94
2023-01-20T18:09:07.501Z,100687.05
2023-01-20T18:11:37.791Z,100685.55
2023-01-20T18:14:07.180Z,100687.45
2023-01-20T18:16:41.953Z,100682.18
2023-01-20T18:19:13.299Z,100682.04
2023-01-20T18:21:43.701Z,100684.91
2023-01-20T18:24:13.767Z,100682.88
2023-01-20T18:26:45.315Z,100681.13
2023-01-20T18:29:16.809Z,100675.19
2023-01-20T18:31:46.841Z,100672.91
2023-01-20T18:34:16.396Z,100677.52
2023-01-20T18:36:46.439Z,100673.77
2023-01-20T18:39:17.758Z,100676.30
2023-01-20T18:41:47.226Z,100680.17
2023-01-20T18:44:15.744Z,100684.27
2023-01-20T18:46:44.130Z,100688.41
2023-01-20T18:49:14.964Z,100688.76
2023-01-20T18:51:43.844Z,100687.35
2023-01-20T18:54:15.188Z,100692.27
2023-01-20T18:56:43.954Z,100700.03
2023-01-20T18:59:13.361Z,100699.74
2023-01-20T19:01:42.582Z,100702.29
2023-01-20T19:04:13.644Z,100699.50
2023-01-20T19:06:45.073Z,100700.10
2023-01-20T19:09:16.121Z,100705.62
2023-01-20T19:11:44.062Z,100700.42
2023-01-20T19:14:14.094Z,100703.34
2023-01-20T19:16:45.402Z,100697.00
2023-01-20T19:19:13.748Z,100699.64
2023-01-20T19:21:42.489Z,100705.04
2023-01-20T19:24:17.354Z,100706.00
2023-01-20T19:26:45.441Z,100707.33
2023-01-20T19:29:16.089Z,100701.77
2023-01-20T19:31:44.242Z,100697.10
2023-01-20T19:34:13.289Z,100696.48
2023-01-20T19:36:43.606Z,100694.38
2023-01-20T19:39:11.886Z,100696.79
2023-01-20T19:41:39.855Z,100694.95
2023-01-20T19:44:08.170Z,100693.95
2023-01-20T19:46:39.636Z,100696.53
2023-01-20T19:49:08.284Z,100698.21
2023-01-20T19:51:36.838Z,100694.23
2023-01-20T19:54:06.338Z,100690.92
2023-01-20T19:56:36.556Z,100691.48
2023-01-20T19:59:06.245Z,100686.94
2023-01-20T20:01:37.169Z,100689.27
2023-01-20T20:04:14.318Z,100692.48
2023-01-20T20:06:46.976Z,100686.52
2023-01-20T20:09:19.189Z,100686.23
2023-01-20T20:11:48.663Z,100683.22
2023-01-20T20:14:19.644Z,100684.52
2023-01-20T20:16:48.152Z,100682.30
2023-01-20T20:19:19.124Z,100680.11
2023-01-20T20:21:47.391Z,100678.26
2023-01-20T20:24:16.987Z,100676.68
2023-01-20T20:26:46.421Z,100678.06
2023-01-20T20:29:15.883Z,100671.21
2023-01-20T20:31:43.907Z,100668.14
2023-01-20T20:34:15.354Z,100669.36
2023-01-20T20:36:43.920Z,100664.70
2023-01-20T20:39:16.667Z,100665.20
2023-01-20T20:41:45.354Z,100666.89
2023-01-20T20:44:13.555Z,100670.21
2023-01-20T20:46:41.671Z,100670.91
2023-01-20T20:49:15.989Z,100666.48
2023-01-20T20:51:44.103Z,100660.99
2023-01-20T20:54:14.198Z,100652.33
2023-01-20T20:56:42.168Z,100652.35
2023-01-20T20:59:10.454Z,100661.31
2023-01-20T21:01:38.324Z,100660.34
2023-01-20T21:04:06.687Z,100660.59
2023-01-20T21:06:34.554Z,100656.67
2023-01-20T21:09:02.423Z,100660.06
2023-01-20T21:11:30.241Z,100664.75
2023-01-20T21:13:58.558Z,100666.86
2023-01-20T21:16:27.753Z,100664.47
2023-01-20T21:18:56.868Z,100667.37
2023-01-20T21:21:25.732Z,100663.87
2023-01-20T21:23:55.978Z,100664.81
2023-01-20T21:26:27.642Z,100660.81
2023-01-20T21:28:57.221Z,100659.47
2023-01-20T21:31:26.875Z,100653.23
2023-01-20T21:33:58.553Z,100659.44
2023-01-20T21:36:27.214Z,100659.61
2023-01-20T21:38:55.342Z,100651.42
2023-01-20T21:41:23.207Z,100658.38
2023-01-20T21:44:09.613Z,100651.71
2023-01-20T21:46:40.280Z,100645.15
2023-01-20T21:49:47.647Z,100644.46
2023-01-20T21:52:36.702Z,100641.97
2023-01-20T21:55:06.172Z,100638.23
2023-01-20T21:57:34.061Z,100639.61
2023-01-20T22:00:03.463Z,100642.64
2023-01-20T22:02:31.333Z,100643.59
2023-01-20T22:04:59.195Z,100642.73
2023-01-20T22:07:27.472Z,100644.42
2023-01-20T22:09:57.907Z,100642.08
2023-01-20T22:12:26.176Z,100643.22
2023-01-20T22:14:53.943Z,100640.48
2023-01-20T22:17:21.704Z,100635.35
2023-01-20T22:19:49.457Z,100633.98
2023-01-20T22:22:17.527Z,100633.48
2023-01-20T22:24:45.392Z,100639.30
2023-01-20T22:27:13.262Z,100633.75
2023-01-20T22:29:41.131Z,100629.67
2023-01-20T22:32:09.403Z,100624.58
2023-01-20T22:34:37.370Z,100626.73
2023-01-20T22:37:05.645Z,100619.83
2023-01-20T22:39:33.513Z,100613.59
2023-01-20T22:42:01.383Z,100613.05
2023-01-20T22:44:29.266Z,100602.81
2023-01-20T22:46:57.106Z,100598.85
2023-01-20T22:49:24.980Z,100598.32
2023-01-20T22:51:54.992Z,100597.86
2023-01-20T22:54:22.957Z,100586.98
2023-01-20T22:56:50.701Z,100583.11
2023-01-20T22:59:18.432Z,100577.63
2023-01-20T23:01:46.183Z,100576.69
2023-01-20T23:04:15.172Z,100581.14
2023-01-20T23:06:42.922Z,100580.86
2023-01-20T23:09:12.974Z,100577.66
2023-01-20T23:11:41.455Z,100581.88
2023-01-20T23:14:12.949Z,100579.73
2023-01-20T23:16:41.257Z,100579.09
2023-01-20T23:19:10.044Z,100579.00
2023-01-20T23:21:37.889Z,100583.23
2023-01-20T23:24:05.750Z,100590.01
2023-01-20T23:26:34.378Z,100583.66
2023-01-20T23:29:02.111Z,100579.46
2023-01-20T23:31:33.401Z,100575.80
2023-01-20T23:34:01.244Z,100582.52
2023-01-20T23:36:29.067Z,100578.33
2023-01-20T23:38:57.264Z,100571.40
2023-01-20T23:41:25.660Z,100575.60
2023-01-20T23:43:53.495Z,100570.86
2023-01-20T23:46:21.446Z,100569.32
2023-01-20T23:48:49.448Z,100564.27
2023-01-20T23:51:17.626Z,100570.13
2023-01-20T23:53:45.387Z,100571.81
2023-01-20T23:56:16.491Z,100568.93
2023-01-20T23:58:45.149Z,100574.65
